Terminal Aerodrome Forecast
Issued by NWS

Home | Current Version | Previous Version | Text Only | Print | Product List | Glossary On
Versions: 1 2 3 4 5 6 7 8 9 10 11 12 13 14
000
FTUS46 KMFR 221100
TAFRBG
TAF
KRBG 221131Z 2212/2312 00000KT P6SM OVC015
     FM221600 VRB03KT P6SM SCT015 BKN200
     FM222200 32007KT P6SM BKN150
     FM230300 VRB03KT P6SM SCT080 OVC120=

USA.gov is the U.S. government's official web portal to all federal, state and local government web resources and services.